Time;durP1;ratioP1;P1;durP2;ratioP2;P2;SDS_P1;SDS_P2;PMS_P1;PMS_P2;Temp;Humidity;BMP_temperature;BMP_pressure;BME280_temperature;BME280_humidity;BME280_pressure;Samples;Min_cycle;Max_cycle;Signal;HPM_P1;HPM_P2
2021/04/02 00:00:52;;;;;;;;;;;;;;;13.75;80.00;100839.56;5073237;28;19928;-79
2021/04/02 00:03:18;;;;;;;;;;;;;;;13.69;79.68;100846.38;5075415;28;19922;-79
2021/04/02 00:05:44;;;;;;;;;;;;;;;13.62;79.69;100847.59;5054656;28;20452;-79
2021/04/02 00:08:09;;;;;;;;;;;;;;;13.52;80.45;100847.78;5072240;28;19974;-79
2021/04/02 00:10:39;;;;;;;;;;;;;;;13.51;79.90;100846.13;5058191;28;20007;-80
2021/04/02 00:13:04;;;;;;;;;;;;;;;13.49;79.94;100848.38;5063629;28;19967;-80
2021/04/02 00:15:30;;;;;;;;;;;;;;;13.44;80.11;100856.00;5045843;28;19920;-79
2021/04/02 00:17:55;;;;;;;;;;;;;;;13.42;80.21;100853.50;5076299;28;19958;-80
2021/04/02 00:20:20;;;;;;;;;;;;;;;13.40;79.52;100856.63;5073185;28;19917;-79
2021/04/02 00:22:46;;;;;;;;;;;;;;;13.22;81.21;100857.44;5071987;28;20331;-79
2021/04/02 00:25:12;;;;;;;;;;;;;;;13.23;80.13;100861.06;5056943;28;19916;-79
2021/04/02 00:27:37;;;;;;;;;;;;;;;13.16;81.58;100856.69;5072247;28;19916;-80
2021/04/02 00:30:09;;;;;;;;;;;;;;;13.07;81.83;100861.31;5074075;28;19916;-80
2021/04/02 00:32:34;;;;;;;;;;;;;;;13.08;81.22;100860.16;5068571;28;19913;-80
2021/04/02 00:35:00;;;;;;;;;;;;;;;13.04;81.96;100863.84;5073201;28;19923;-79
2021/04/02 00:37:25;;;;;;;;;;;;;;;12.95;81.75;100870.13;5071548;28;20049;-80
2021/04/02 00:39:50;;;;;;;;;;;;;;;12.89;82.47;100862.94;5074734;28;19934;-80
2021/04/02 00:42:16;;;;;;;;;;;;;;;12.80;82.40;100867.56;5074111;28;19924;-79
2021/04/02 00:44:41;;;;;;;;;;;;;;;12.80;82.87;100872.31;5072808;28;19925;-79
2021/04/02 00:47:06;;;;;;;;;;;;;;;12.77;83.26;100867.34;5074218;28;19912;-80
2021/04/02 00:49:32;;;;;;;;;;;;;;;12.70;83.69;100868.53;5073183;28;19917;-80
2021/04/02 00:51:57;;;;;;;;;;;;;;;12.67;83.54;100873.84;5057288;28;20000;-80
2021/04/02 00:54:22;;;;;;;;;;;;;;;12.55;84.12;100865.94;5076070;28;19912;-79
2021/04/02 00:56:48;;;;;;;;;;;;;;;12.52;83.95;100867.38;5073508;28;20291;-80
2021/04/02 00:59:13;;;;;;;;;;;;;;;12.52;84.03;100869.31;5054584;28;19916;-79
2021/04/02 01:01:38;;;;;;;;;;;;;;;12.42;84.50;100872.22;5053095;28;19912;-79
2021/04/02 01:04:04;;;;;;;;;;;;;;;12.36;84.97;100873.44;5049759;28;20003;-80
2021/04/02 01:06:29;;;;;;;;;;;;;;;12.35;84.62;100863.44;5072743;28;19980;-79
2021/04/02 01:08:55;;;;;;;;;;;;;;;12.32;84.75;100872.38;5074554;28;19918;-80
2021/04/02 01:11:21;;;;;;;;;;;;;;;12.24;84.99;100863.53;5072920;28;19921;-81
2021/04/02 01:13:56;;;;;;;;;;;;;;;12.22;85.12;100859.38;5066464;28;19924;-80
2021/04/02 01:16:25;;;;;;;;;;;;;;;12.19;85.17;100869.16;5069364;28;19966;-79
2021/04/02 01:18:51;;;;;;;;;;;;;;;12.15;85.22;100858.94;5040995;28;19962;-79
2021/04/02 01:21:17;;;;;;;;;;;;;;;12.16;85.00;100864.19;5072655;28;19938;-80
2021/04/02 01:23:54;;;;;;;;;;;;;;;12.14;84.86;100872.00;5074540;28;20081;-79
2021/04/02 01:26:27;;;;;;;;;;;;;;;12.15;84.78;100870.91;5074561;28;20027;-80
2021/04/02 01:29:25;;;;;;;;;;;;;;;12.09;84.99;100869.31;5072262;28;19958;-79
2021/04/02 01:31:52;;;;;;;;;;;;;;;12.07;84.75;100874.31;5041631;28;20046;-79
2021/04/02 01:34:18;;;;;;;;;;;;;;;12.02;84.61;100866.84;5072923;28;19913;-79
2021/04/02 01:36:43;;;;;;;;;;;;;;;11.93;84.87;100878.94;5040609;28;19923;-79
2021/04/02 01:39:09;;;;;;;;;;;;;;;11.91;84.92;100875.59;5077143;28;19917;-79
2021/04/02 01:41:35;;;;;;;;;;;;;;;11.90;84.93;100879.53;5077572;28;19926;-79
2021/04/02 01:44:00;;;;;;;;;;;;;;;11.91;84.34;100875.59;5077462;28;19999;-80
2021/04/02 01:46:26;;;;;;;;;;;;;;;11.83;84.39;100872.31;5062654;28;20364;-80
2021/04/02 01:48:52;;;;;;;;;;;;;;;11.87;84.00;100880.94;5098991;28;19916;-80
2021/04/02 01:51:17;;;;;;;;;;;;;;;11.84;84.05;100879.53;5080933;28;19916;-79
2021/04/02 01:53:47;;;;;;;;;;;;;;;11.88;83.70;100881.75;5078625;28;19941;-80
2021/04/02 01:56:12;;;;;;;;;;;;;;;11.76;84.33;100880.19;5069720;28;19916;-79
2021/04/02 01:58:38;;;;;;;;;;;;;;;11.66;84.62;100880.25;5079465;28;20368;-79
2021/04/02 02:01:03;;;;;;;;;;;;;;;11.65;84.53;100867.47;5096781;28;20391;-79
2021/04/02 02:03:29;;;;;;;;;;;;;;;11.65;84.55;100875.00;5080061;28;19913;-79
2021/04/02 02:05:55;;;;;;;;;;;;;;;11.55;84.59;100873.13;5096333;28;20376;-79
2021/04/02 02:08:20;;;;;;;;;;;;;;;11.58;84.54;100869.75;5078690;28;19917;-80
2021/04/02 02:10:46;;;;;;;;;;;;;;;11.49;84.88;100863.19;5064445;28;19963;-79
2021/04/02 02:13:11;;;;;;;;;;;;;;;11.50;84.81;100870.41;5058068;28;19923;-79
2021/04/02 02:15:37;;;;;;;;;;;;;;;11.42;84.78;100866.28;5094707;28;19916;-79
2021/04/02 02:18:05;;;;;;;;;;;;;;;11.40;84.70;100866.59;5080661;28;20284;-79
2021/04/02 02:20:31;;;;;;;;;;;;;;;11.36;84.97;100876.63;5039265;28;20071;-79
2021/04/02 02:22:57;;;;;;;;;;;;;;;11.31;85.07;100862.78;5072537;28;20355;-79
2021/04/02 02:25:26;;;;;;;;;;;;;;;11.31;84.97;100873.91;5079449;28;20058;-79
2021/04/02 02:27:51;;;;;;;;;;;;;;;11.30;84.69;100868.63;5077332;28;19923;-79
2021/04/02 02:30:18;;;;;;;;;;;;;;;11.19;84.75;100881.75;5059373;28;19916;-79
2021/04/02 02:32:43;;;;;;;;;;;;;;;11.20;84.58;100880.66;5098203;28;19920;-79
2021/04/02 02:35:09;;;;;;;;;;;;;;;11.13;84.72;100877.38;5077949;28;19965;-79
2021/04/02 02:37:34;;;;;;;;;;;;;;;11.05;85.11;100887.13;5078302;28;19963;-79
2021/04/02 02:40:00;;;;;;;;;;;;;;;11.01;85.31;100880.50;5056505;28;19923;-79
2021/04/02 02:42:26;;;;;;;;;;;;;;;10.99;85.25;100876.34;5078475;28;19924;-79
2021/04/02 02:44:51;;;;;;;;;;;;;;;10.93;85.25;100867.22;5060150;28;20351;-80
2021/04/02 02:47:16;;;;;;;;;;;;;;;10.92;85.26;100883.06;5079333;28;19916;-79
2021/04/02 02:49:42;;;;;;;;;;;;;;;10.86;85.29;100878.63;5078486;28;20011;-80
2021/04/02 02:52:07;;;;;;;;;;;;;;;10.82;85.37;100876.72;5062138;28;19916;-80
2021/04/02 02:54:32;;;;;;;;;;;;;;;10.77;85.27;100880.38;5062346;28;19923;-79
2021/04/02 02:56:58;;;;;;;;;;;;;;;10.79;85.22;100878.13;5079181;28;19985;-80
2021/04/02 02:59:24;;;;;;;;;;;;;;;10.83;85.06;100882.00;5078821;28;19923;-79
2021/04/02 03:01:50;;;;;;;;;;;;;;;10.66;85.49;100879.59;5097510;28;19923;-79
2021/04/02 03:04:16;;;;;;;;;;;;;;;10.62;85.57;100886.84;5075969;28;19998;-79
2021/04/02 03:06:41;;;;;;;;;;;;;;;10.66;85.44;100889.88;5076572;28;19916;-79
2021/04/02 03:09:07;;;;;;;;;;;;;;;10.59;85.54;100898.53;5096323;28;20336;-79
2021/04/02 03:11:32;;;;;;;;;;;;;;;10.55;85.34;100897.41;5079005;28;19924;-79
2021/04/02 03:13:57;;;;;;;;;;;;;;;10.50;85.71;100895.50;5059055;28;19923;-79
2021/04/02 03:16:23;;;;;;;;;;;;;;;10.50;85.56;100891.88;5055230;28;19923;-79
2021/04/02 03:18:50;;;;;;;;;;;;;;;10.45;85.23;100887.19;5077112;28;19912;-79
2021/04/02 03:21:15;;;;;;;;;;;;;;;10.40;85.72;100892.75;5070876;28;19923;-79
2021/04/02 03:23:43;;;;;;;;;;;;;;;10.36;85.69;100886.09;5079014;28;19920;-78
2021/04/02 03:26:09;;;;;;;;;;;;;;;10.34;85.78;100884.75;5077977;28;19982;-79
2021/04/02 03:28:35;;;;;;;;;;;;;;;10.23;85.88;100881.16;5095277;28;19924;-78
2021/04/02 03:31:00;;;;;;;;;;;;;;;10.12;86.18;100880.34;5061554;28;19924;-79
2021/04/02 03:33:26;;;;;;;;;;;;;;;10.18;86.08;100878.38;5077685;28;19952;-78
2021/04/02 03:35:57;;;;;;;;;;;;;;;10.09;86.23;100883.69;5074750;28;19923;-78
2021/04/02 03:38:22;;;;;;;;;;;;;;;10.05;86.33;100886.16;5061610;28;19969;-78
2021/04/02 03:40:48;;;;;;;;;;;;;;;10.04;86.30;100884.50;5078974;28;19916;-79
2021/04/02 03:43:13;;;;;;;;;;;;;;;10.05;86.30;100885.34;5076505;28;19920;-79
2021/04/02 03:45:40;;;;;;;;;;;;;;;10.00;86.14;100883.44;5058921;28;20392;-79
2021/04/02 03:48:06;;;;;;;;;;;;;;;9.94;86.21;100884.53;5078692;28;19923;-79
2021/04/02 03:50:32;;;;;;;;;;;;;;;9.92;86.42;100884.00;5061450;28;19917;-79
2021/04/02 03:53:06;;;;;;;;;;;;;;;9.90;86.39;100894.53;5061517;28;19912;-79
2021/04/02 03:55:31;;;;;;;;;;;;;;;9.89;86.30;100898.44;5095378;28;19923;-80
2021/04/02 03:57:57;;;;;;;;;;;;;;;9.85;86.53;100895.38;5058723;28;19912;-79
2021/04/02 04:00:42;;;;;;;;;;;;;;;9.86;86.21;100904.50;5076704;28;20363;-79
2021/04/02 04:03:07;;;;;;;;;;;;;;;9.75;86.75;100906.50;5095812;28;19997;-79
2021/04/02 04:05:33;;;;;;;;;;;;;;;9.72;86.59;100908.97;5094822;28;19916;-79
2021/04/02 04:07:58;;;;;;;;;;;;;;;9.74;86.65;100906.75;5075713;28;19945;-79
2021/04/02 04:10:23;;;;;;;;;;;;;;;9.63;86.77;100901.22;5078269;28;20033;-79
2021/04/02 04:12:49;;;;;;;;;;;;;;;9.61;87.05;100899.81;5074751;28;20409;-79
2021/04/02 04:15:14;;;;;;;;;;;;;;;9.65;86.64;100894.56;5073627;28;20360;-79
2021/04/02 04:17:40;;;;;;;;;;;;;;;9.57;86.78;100895.97;5078128;28;19916;-79
2021/04/02 04:20:05;;;;;;;;;;;;;;;9.54;86.79;100908.44;5093900;28;19961;-79
2021/04/02 04:22:31;;;;;;;;;;;;;;;9.49;87.00;100902.06;5077494;28;19916;-78
2021/04/02 04:24:56;;;;;;;;;;;;;;;9.40;87.16;100907.31;5078527;28;19916;-79
2021/04/02 04:27:22;;;;;;;;;;;;;;;9.47;87.25;100905.13;5075641;28;19923;-79
2021/04/02 04:29:50;;;;;;;;;;;;;;;9.45;86.81;100904.56;5075333;28;20292;-79
2021/04/02 04:32:16;;;;;;;;;;;;;;;9.40;86.83;100907.31;5049510;28;20368;-79
2021/04/02 04:34:42;;;;;;;;;;;;;;;9.42;86.73;100909.81;5074340;28;20004;-79
2021/04/02 04:37:07;;;;;;;;;;;;;;;9.26;87.23;100907.03;5076423;28;19959;-79
2021/04/02 04:39:32;;;;;;;;;;;;;;;9.31;86.91;100912.59;5076205;28;20394;-79
2021/04/02 04:41:58;;;;;;;;;;;;;;;9.34;86.70;100913.97;5070588;28;19916;-79
2021/04/02 04:44:23;;;;;;;;;;;;;;;9.28;86.89;100915.09;5075462;28;19920;-79
2021/04/02 04:46:48;;;;;;;;;;;;;;;9.27;86.90;100916.19;5060721;28;20312;-79
2021/04/02 04:49:14;;;;;;;;;;;;;;;9.19;87.14;100917.56;5043826;28;19916;-79
2021/04/02 04:51:39;;;;;;;;;;;;;;;9.16;87.35;100915.34;5095327;28;19916;-79
2021/04/02 04:54:05;;;;;;;;;;;;;;;9.20;87.03;100923.94;5049354;28;19946;-80
2021/04/02 04:56:31;;;;;;;;;;;;;;;9.16;87.11;100918.97;5056825;28;19963;-79
2021/04/02 04:58:58;;;;;;;;;;;;;;;9.15;87.14;100928.38;5066380;28;19975;-79
2021/04/02 05:01:24;;;;;;;;;;;;;;;9.10;87.07;100911.72;5095041;28;19991;-79
2021/04/02 05:03:49;;;;;;;;;;;;;;;9.15;86.99;100922.00;5076366;28;19962;-79
2021/04/02 05:06:15;;;;;;;;;;;;;;;9.11;87.24;100929.16;5074981;28;19916;-79
2021/04/02 05:08:41;;;;;;;;;;;;;;;9.05;87.24;100925.56;5053069;28;19912;-79
2021/04/02 05:11:10;;;;;;;;;;;;;;;9.02;87.11;100923.34;5095612;28;19934;-79
2021/04/02 05:13:36;;;;;;;;;;;;;;;9.06;86.93;100924.47;5073708;28;19916;-79
2021/04/02 05:16:01;;;;;;;;;;;;;;;9.03;87.11;100935.28;5086756;28;19999;-79
2021/04/02 05:18:27;;;;;;;;;;;;;;;8.99;87.16;100934.16;5079581;28;19916;-79
2021/04/02 05:20:52;;;;;;;;;;;;;;;8.95;87.16;100928.31;5097997;28;19920;-79
2021/04/02 05:23:18;;;;;;;;;;;;;;;8.98;86.92;100933.31;5051835;28;19920;-79
2021/04/02 05:25:43;;;;;;;;;;;;;;;8.98;86.77;100936.09;5098070;28;19930;-79
2021/04/02 05:28:09;;;;;;;;;;;;;;;8.99;86.87;100940.50;5074525;28;19916;-69
2021/04/02 05:30:34;;;;;;;;;;;;;;;8.92;86.85;100942.72;5093253;28;19916;-70
2021/04/02 05:32:59;;;;;;;;;;;;;;;8.84;87.39;100944.06;5095394;28;19916;-70
2021/04/02 05:35:25;;;;;;;;;;;;;;;8.82;87.43;100945.44;5061897;28;19924;-69
2021/04/02 05:37:50;;;;;;;;;;;;;;;8.84;87.21;100946.03;5063655;28;19919;-69
2021/04/02 05:40:16;;;;;;;;;;;;;;;8.84;87.27;100943.25;5079916;28;19916;-69
2021/04/02 05:42:42;;;;;;;;;;;;;;;8.88;86.83;100952.66;5061416;28;20012;-69
2021/04/02 05:45:07;;;;;;;;;;;;;;;8.85;86.67;100950.44;5067911;28;19947;-69
2021/04/02 05:47:33;;;;;;;;;;;;;;;8.77;86.96;100945.44;5060404;28;19923;-69
2021/04/02 05:49:58;;;;;;;;;;;;;;;8.76;86.62;100941.84;5046882;28;19916;-70
2021/04/02 05:52:27;;;;;;;;;;;;;;;8.75;87.03;100958.72;5078388;28;19916;-70
2021/04/02 05:54:52;;;;;;;;;;;;;;;8.55;87.53;100951.97;5096980;28;19920;-70
2021/04/02 05:57:18;;;;;;;;;;;;;;;8.61;87.21;100962.00;5076621;28;19916;-69
2021/04/02 05:59:43;;;;;;;;;;;;;;;8.59;87.24;100963.38;5035768;28;19916;-69
2021/04/02 06:02:11;;;;;;;;;;;;;;;8.61;87.15;100953.69;5060380;28;19922;-69
2021/04/02 06:04:37;;;;;;;;;;;;;;;8.58;87.35;100956.16;5061681;28;19923;-69
2021/04/02 06:07:02;;;;;;;;;;;;;;;8.55;87.48;100962.22;5063970;28;20006;-69
2021/04/02 06:09:27;;;;;;;;;;;;;;;8.57;87.11;100960.84;5057932;28;19922;-69
2021/04/02 06:11:53;;;;;;;;;;;;;;;8.60;86.83;100971.38;5074409;28;20311;-70
2021/04/02 06:14:18;;;;;;;;;;;;;;;8.64;86.58;100974.47;5044908;28;19920;-70
2021/04/02 06:16:50;;;;;;;;;;;;;;;8.56;86.92;100975.81;5034009;28;20257;-69
2021/04/02 06:19:15;;;;;;;;;;;;;;;8.55;86.92;100978.84;5079532;28;20384;-70
2021/04/02 06:21:59;;;;;;;;;;;;;;;8.43;87.15;100982.66;5062060;28;19939;-69
2021/04/02 06:24:34;;;;;;;;;;;;;;;8.44;87.23;100980.72;5078045;28;19942;-69
2021/04/02 06:27:00;;;;;;;;;;;;;;;8.39;87.23;100980.72;5058654;28;19917;-69
2021/04/02 06:29:26;;;;;;;;;;;;;;;8.48;86.63;100982.69;5076837;28;19917;-69
2021/04/02 06:31:51;;;;;;;;;;;;;;;8.45;86.87;100979.63;5080709;28;19955;-69
2021/04/02 06:34:16;;;;;;;;;;;;;;;8.40;86.86;100980.41;5043441;28;19975;-69
2021/04/02 06:37:10;;;;;;;;;;;;;;;8.34;87.04;100984.25;5043855;28;20320;-78
2021/04/02 06:39:38;;;;;;;;;;;;;;;8.36;86.89;100983.94;5068208;28;19915;-79
2021/04/02 06:42:07;;;;;;;;;;;;;;;8.49;86.49;100980.75;5061720;28;20008;-79
2021/04/02 06:44:33;;;;;;;;;;;;;;;8.58;86.17;100983.84;5078948;28;20380;-79
2021/04/02 06:46:58;;;;;;;;;;;;;;;8.53;86.07;100984.66;5061656;28;19916;-81
2021/04/02 06:49:24;;;;;;;;;;;;;;;8.54;86.21;100989.09;5076367;28;19916;-70
2021/04/02 06:51:49;;;;;;;;;;;;;;;8.49;85.89;100987.09;5077696;28;19920;-72
2021/04/02 06:54:15;;;;;;;;;;;;;;;8.64;85.80;100989.13;5063495;28;19916;-71
2021/04/02 06:56:50;;;;;;;;;;;;;;;8.61;85.95;100986.91;5096347;28;20367;-71
2021/04/02 06:59:18;;;;;;;;;;;;;;;8.67;85.58;100998.84;5095949;28;19931;-71
2021/04/02 07:01:44;;;;;;;;;;;;;;;8.68;85.17;100995.78;5079470;28;19920;-71
2021/04/02 07:04:10;;;;;;;;;;;;;;;8.74;84.92;100991.09;5078337;28;20001;-71
2021/04/02 07:06:35;;;;;;;;;;;;;;;8.78;85.06;100999.72;5043334;28;19931;-71
2021/04/02 07:09:01;;;;;;;;;;;;;;;8.92;84.54;100989.81;5061163;28;19916;-71
2021/04/02 07:11:26;;;;;;;;;;;;;;;8.93;84.44;101002.56;5045487;28;19919;-71
2021/04/02 07:13:52;;;;;;;;;;;;;;;8.98;83.92;100993.44;5056718;28;19938;-71
2021/04/02 07:16:21;;;;;;;;;;;;;;;9.02;83.92;100992.59;5094406;28;23880;-71
2021/04/02 07:18:46;;;;;;;;;;;;;;;9.04;84.40;101000.66;5047349;28;19916;-71
2021/04/02 07:21:13;;;;;;;;;;;;;;;9.09;83.98;101003.44;5091083;28;19948;-71
2021/04/02 07:23:39;;;;;;;;;;;;;;;9.09;84.06;101004.28;5077979;28;19920;-71
2021/04/02 07:26:04;;;;;;;;;;;;;;;9.17;84.07;101014.84;5049482;28;19957;-71
2021/04/02 07:28:29;;;;;;;;;;;;;;;9.31;83.74;101014.31;5074904;28;19916;-71
2021/04/02 07:30:55;;;;;;;;;;;;;;;9.32;83.10;101015.97;5062250;28;20272;-71
2021/04/02 07:33:20;;;;;;;;;;;;;;;9.40;82.74;101021.00;5075270;28;19955;-71
2021/04/02 07:35:55;;;;;;;;;;;;;;;9.42;83.13;101010.47;5039369;28;19912;-71
2021/04/02 07:38:21;;;;;;;;;;;;;;;9.52;82.31;101020.72;5033837;28;19920;-71
2021/04/02 07:40:50;;;;;;;;;;;;;;;9.57;81.97;101024.34;5076982;28;19961;-71
2021/04/02 07:43:15;;;;;;;;;;;;;;;9.61;81.87;101025.47;5053836;28;20292;-71
2021/04/02 07:45:40;;;;;;;;;;;;;;;9.70;81.33;101024.94;5072361;28;19920;-71
2021/04/02 07:48:16;;;;;;;;;;;;;;;9.70;81.18;101024.94;5045465;28;19912;-71
2021/04/02 07:50:42;;;;;;;;;;;;;;;9.73;81.18;101021.59;5040688;28;19917;-71
2021/04/02 07:53:12;;;;;;;;;;;;;;;9.81;80.91;101026.59;5061351;28;20414;-71
2021/04/02 07:55:37;;;;;;;;;;;;;;;9.85;79.92;101025.75;5061759;28;19916;-71
2021/04/02 07:58:06;;;;;;;;;;;;;;;9.95;79.73;101027.72;5044669;28;19920;-71
2021/04/02 08:00:32;;;;;;;;;;;;;;;9.96;79.12;101026.59;5059877;28;19912;-71
2021/04/02 08:03:24;;;;;;;;;;;;;;;9.98;78.49;101024.38;5060056;28;19926;-70
2021/04/02 08:05:57;;;;;;;;;;;;;;;10.10;78.86;101028.81;5074619;28;20421;-71
2021/04/02 08:08:23;;;;;;;;;;;;;;;10.17;78.49;101033.00;5095094;28;19912;-70
2021/04/02 08:11:01;;;;;;;;;;;;;;;10.19;78.62;101036.28;5093775;28;20414;-71
2021/04/02 08:13:26;;;;;;;;;;;;;;;10.36;77.60;101030.47;5073107;28;20433;-70
2021/04/02 08:15:52;;;;;;;;;;;;;;;10.45;78.17;101036.31;5064922;28;19915;-70
2021/04/02 08:18:21;;;;;;;;;;;;;;;10.47;77.34;101034.06;5074826;28;19923;-71
2021/04/02 08:20:51;;;;;;;;;;;;;;;10.48;76.99;101039.34;5073156;28;19916;-76
2021/04/02 08:23:16;;;;;;;;;;;;;;;10.55;77.00;101050.16;5075324;28;20011;-78
2021/04/02 08:25:41;;;;;;;;;;;;;;;10.58;76.76;101054.31;5041955;28;19956;-77
2021/04/02 08:28:09;;;;;;;;;;;;;;;10.73;77.00;101059.88;5053399;28;19968;-78
2021/04/02 08:30:35;;;;;;;;;;;;;;;10.71;76.36;101060.13;5074382;28;19941;-77
2021/04/02 08:33:00;;;;;;;;;;;;;;;10.82;75.97;101066.50;5058334;28;20330;-77
2021/04/02 08:35:25;;;;;;;;;;;;;;;10.79;76.36;101067.06;5061681;28;19912;-77
2021/04/02 08:37:57;;;;;;;;;;;;;;;10.78;75.96;101070.97;5074493;28;20296;-78
2021/04/02 08:40:23;;;;;;;;;;;;;;;10.93;76.12;101059.78;5052764;28;20376;-77
2021/04/02 08:42:49;;;;;;;;;;;;;;;10.98;76.49;101070.06;5055257;28;19947;-78
2021/04/02 08:45:15;;;;;;;;;;;;;;;11.12;76.18;101071.13;5038035;28;19920;-78
2021/04/02 08:47:40;;;;;;;;;;;;;;;11.12;75.55;101075.84;5084668;28;19916;-78
2021/04/02 08:50:06;;;;;;;;;;;;;;;11.20;74.95;101072.50;5059849;28;19924;-78
2021/04/02 08:52:31;;;;;;;;;;;;;;;11.22;74.39;101081.34;5100863;28;20014;-78
2021/04/02 08:54:57;;;;;;;;;;;;;;;11.23;74.63;101077.47;5083672;28;19947;-78
2021/04/02 08:57:26;;;;;;;;;;;;;;;11.37;74.89;101080.47;5080613;28;19927;-77
2021/04/02 08:59:52;;;;;;;;;;;;;;;11.45;74.04;101091.00;5055689;28;20383;-78
2021/04/02 09:02:17;;;;;;;;;;;;;;;11.56;73.67;101097.31;5101301;28;19935;-78
2021/04/02 09:04:43;;;;;;;;;;;;;;;11.59;74.10;101096.78;5064819;28;20041;-77
2021/04/02 09:07:08;;;;;;;;;;;;;;;11.61;73.60;101094.50;5051345;28;20289;-78
2021/04/02 09:09:33;;;;;;;;;;;;;;;11.68;73.08;101099.78;5050859;28;19916;-78
2021/04/02 09:12:09;;;;;;;;;;;;;;;11.74;73.33;101099.44;5081225;28;19920;-78
2021/04/02 09:14:35;;;;;;;;;;;;;;;11.84;72.99;101096.63;5096875;28;19916;-78
2021/04/02 09:17:00;;;;;;;;;;;;;;;11.89;72.29;101100.50;5065722;28;19920;-78
2021/04/02 09:19:26;;;;;;;;;;;;;;;11.98;72.24;101099.63;5081397;28;19919;-77
2021/04/02 09:21:54;;;;;;;;;;;;;;;12.10;72.48;101102.03;5064559;28;19916;-78
2021/04/02 09:24:20;;;;;;;;;;;;;;;12.12;71.99;101110.94;5082128;28;19923;-78
2021/04/02 09:26:45;;;;;;;;;;;;;;;12.25;71.93;101101.06;5084159;28;19916;-78
2021/04/02 09:29:11;;;;;;;;;;;;;;;12.29;71.07;101111.34;5081950;28;19946;-78
2021/04/02 09:31:37;;;;;;;;;;;;;;;12.27;71.05;101104.41;5079650;28;19936;-78
2021/04/02 09:34:03;;;;;;;;;;;;;;;12.34;70.40;101102.13;5083540;28;19923;-78
2021/04/02 09:36:30;;;;;;;;;;;;;;;12.54;70.81;101106.69;5068413;28;20280;-78
2021/04/02 09:39:05;;;;;;;;;;;;;;;12.66;71.10;101106.28;5082497;28;19940;-77
2021/04/02 09:41:30;;;;;;;;;;;;;;;12.61;70.36;101103.53;5101499;28;19923;-78
2021/04/02 09:43:56;;;;;;;;;;;;;;;12.67;69.39;101094.00;5081902;28;20002;-78
2021/04/02 09:46:28;;;;;;;;;;;;;;;12.71;69.64;101100.66;5086679;28;19920;-78
2021/04/02 09:48:59;;;;;;;;;;;;;;;12.74;69.51;101091.72;5095447;28;20364;-79
2021/04/02 09:51:24;;;;;;;;;;;;;;;12.81;69.42;101092.19;5098837;28;19974;-78
2021/04/02 09:53:50;;;;;;;;;;;;;;;12.85;68.28;101090.47;5102521;28;19916;-78
2021/04/02 09:56:15;;;;;;;;;;;;;;;12.90;68.86;101097.97;5063985;28;19923;-78
2021/04/02 09:58:40;;;;;;;;;;;;;;;12.95;68.71;101107.09;5079099;28;19916;-77
2021/04/02 10:01:06;;;;;;;;;;;;;;;12.94;67.79;101105.44;5099192;28;20359;-78
2021/04/02 10:03:31;;;;;;;;;;;;;;;13.05;67.79;101111.72;5058562;28;19916;-77
2021/04/02 10:05:56;;;;;;;;;;;;;;;13.04;66.74;101109.22;5097143;28;20410;-74
2021/04/02 10:08:22;;;;;;;;;;;;;;;13.15;67.19;101114.41;5097526;28;19973;-74
2021/04/02 10:10:47;;;;;;;;;;;;;;;13.22;67.45;101099.25;5096059;28;19916;-74
2021/04/02 10:13:13;;;;;;;;;;;;;;;13.36;67.55;101105.81;5098322;28;19923;-74
2021/04/02 10:15:38;;;;;;;;;;;;;;;13.45;66.51;101108.75;5095453;28;19920;-75
2021/04/02 10:18:03;;;;;;;;;;;;;;;13.57;66.53;101096.06;5097736;28;19915;-75
2021/04/02 10:20:29;;;;;;;;;;;;;;;13.70;66.04;101110.38;5097829;28;19912;-74
2021/04/02 10:22:54;;;;;;;;;;;;;;;13.72;64.66;101108.13;5094995;28;19916;-74
2021/04/02 10:25:20;;;;;;;;;;;;;;;13.82;64.99;101102.41;5098419;28;19957;-74
2021/04/02 10:27:45;;;;;;;;;;;;;;;13.92;65.26;101099.44;5096992;28;19916;-74
2021/04/02 10:30:11;;;;;;;;;;;;;;;14.04;65.88;101105.41;5093761;28;19916;-74
2021/04/02 10:32:36;;;;;;;;;;;;;;;14.16;65.05;101101.34;5097323;28;20413;-75
2021/04/02 10:35:02;;;;;;;;;;;;;;;14.22;65.56;101108.50;5094835;28;19916;-75
2021/04/02 10:37:27;;;;;;;;;;;;;;;14.29;66.43;101100.53;5070327;28;20420;-75
2021/04/02 10:39:53;;;;;;;;;;;;;;;14.41;66.48;101102.88;5092619;28;19916;-75
2021/04/02 10:42:18;;;;;;;;;;;;;;;14.45;65.97;101110.31;5094090;28;19916;-75
2021/04/02 10:44:44;;;;;;;;;;;;;;;14.56;65.95;101107.41;5078262;28;20390;-75
2021/04/02 10:47:10;;;;;;;;;;;;;;;14.62;66.07;101111.75;5095457;28;19916;-75
2021/04/02 10:49:35;;;;;;;;;;;;;;;14.65;66.00;101103.56;5079271;28;19958;-75
2021/04/02 10:52:01;;;;;;;;;;;;;;;14.76;65.51;101104.22;5096605;28;19916;-75
2021/04/02 10:54:26;;;;;;;;;;;;;;;14.91;66.08;101101.16;5094460;28;19920;-78
2021/04/02 10:56:51;;;;;;;;;;;;;;;14.91;66.84;101103.94;5058965;28;20280;-77
2021/04/02 10:59:16;;;;;;;;;;;;;;;14.93;66.16;101103.63;5060195;28;20048;-78
2021/04/02 11:01:42;;;;;;;;;;;;;;;14.87;66.00;101107.66;5096885;28;19920;-78
2021/04/02 11:04:07;;;;;;;;;;;;;;;14.88;65.81;101112.13;5069094;28;19976;-77
2021/04/02 11:06:32;;;;;;;;;;;;;;;14.87;64.98;101105.69;5076718;28;20030;-78
2021/04/02 11:08:58;;;;;;;;;;;;;;;14.98;63.97;101104.34;5077216;28;20272;-78
2021/04/02 11:11:23;;;;;;;;;;;;;;;15.06;64.90;101100.00;5077855;28;19923;-78
2021/04/02 11:13:48;;;;;;;;;;;;;;;15.03;64.07;101106.22;5076278;28;19924;-78
2021/04/02 11:16:14;;;;;;;;;;;;;;;15.19;63.71;101109.56;5077363;28;19939;-78
2021/04/02 11:18:41;;;;;;;;;;;;;;;15.25;63.78;101101.91;5074588;28;19923;-78
2021/04/02 11:21:07;;;;;;;;;;;;;;;15.24;64.19;101103.88;5062515;28;19922;-78
2021/04/02 11:23:32;;;;;;;;;;;;;;;15.46;63.99;101110.69;5078026;28;20386;-78
2021/04/02 11:25:57;;;;;;;;;;;;;;;15.48;62.57;101102.81;5093021;28;19935;-79
2021/04/02 11:28:23;;;;;;;;;;;;;;;15.59;63.51;101101.44;5096268;28;19981;-79
2021/04/02 11:30:48;;;;;;;;;;;;;;;15.73;64.04;101104.25;5077194;28;19938;-78
2021/04/02 11:33:14;;;;;;;;;;;;;;;15.81;63.70;101101.53;5060403;28;19948;-78
2021/04/02 11:35:39;;;;;;;;;;;;;;;15.83;62.06;101102.03;5077879;28;19920;-78
2021/04/02 11:38:04;;;;;;;;;;;;;;;15.75;61.75;101114.00;5060102;28;20283;-78
2021/04/02 11:40:31;;;;;;;;;;;;;;;15.75;62.27;101113.16;5060627;28;19916;-78
2021/04/02 11:42:56;;;;;;;;;;;;;;;15.82;62.17;101114.41;5077437;28;19916;-78
2021/04/02 11:45:22;;;;;;;;;;;;;;;15.85;61.73;101112.91;5070249;28;19929;-78
2021/04/02 11:47:47;;;;;;;;;;;;;;;15.92;62.53;101104.94;5075537;28;19913;-79
2021/04/02 11:50:13;;;;;;;;;;;;;;;15.80;61.16;101110.25;5074698;28;19980;-78
2021/04/02 11:52:39;;;;;;;;;;;;;;;15.84;60.77;101111.28;5073626;28;20005;-79
2021/04/02 11:55:05;;;;;;;;;;;;;;;15.82;61.06;101114.41;5074478;28;19912;-78
2021/04/02 11:57:31;;;;;;;;;;;;;;;15.85;60.74;101124.97;5070227;28;20008;-78
2021/04/02 11:59:56;;;;;;;;;;;;;;;15.75;59.98;101119.59;5058455;28;19952;-78
2021/04/02 12:02:21;;;;;;;;;;;;;;;15.75;59.79;101119.59;5072336;28;19916;-78
2021/04/02 12:04:47;;;;;;;;;;;;;;;15.78;57.14;101118.97;5070777;28;19975;-78
2021/04/02 12:07:12;;;;;;;;;;;;;;;15.81;57.30;101125.91;5063266;28;19924;-78
2021/04/02 12:09:38;;;;;;;;;;;;;;;15.68;60.00;101135.97;5073610;28;20291;-78
2021/04/02 12:12:03;;;;;;;;;;;;;;;15.77;59.49;101128.53;5058107;28;19929;-78
2021/04/02 12:14:29;;;;;;;;;;;;;;;15.86;59.35;101123.81;5064544;28;20016;-78
2021/04/02 12:16:54;;;;;;;;;;;;;;;15.83;60.29;101127.25;5070140;28;20344;-78
2021/04/02 12:19:20;;;;;;;;;;;;;;;15.74;59.75;101137.56;5046356;28;19916;-79
2021/04/02 12:21:45;;;;;;;;;;;;;;;15.81;60.00;101129.53;5074679;28;19923;-78
2021/04/02 12:24:10;;;;;;;;;;;;;;;15.78;60.31;101132.97;5073896;28;20015;-78
2021/04/02 12:26:36;;;;;;;;;;;;;;;15.85;60.02;101136.19;5071674;28;19913;-78
2021/04/02 12:29:01;;;;;;;;;;;;;;;15.82;59.12;101125.59;5069393;28;19923;-78
2021/04/02 12:31:27;;;;;;;;;;;;;;;15.84;58.55;101126.09;5075374;28;19948;-78
2021/04/02 12:33:52;;;;;;;;;;;;;;;15.84;59.80;101128.06;5072501;28;20120;-78
2021/04/02 12:36:18;;;;;;;;;;;;;;;15.75;60.44;101128.00;5055205;28;19924;-78